Terminal Aerodrome Forecast
Issued by NWS

Home | Current Version | Previous Version | Graphics & Text | Print | Product List | Glossary On
Versions: 1 2 3 4 5 6 7 8 9 10 11 12 13 14 15 16 17 18 19 20 21
340
FTUS43 KTOP 181240 AAA
TAFFOE
TAF AMD
KFOE 181240Z 1813/1912 24005KT 1/2SM FZFG VV002
      TEMPO 1813/1814 3SM BR
     FM181400 23010KT P6SM SKC
     FM190000 20007KT P6SM SKC=

USA.gov is the U.S. government's official web portal to all federal, state and local government web resources and services.